Time;durP1;ratioP1;P1;durP2;ratioP2;P2;SDS_P1;SDS_P2;PMS_P1;PMS_P2;Temp;Humidity;BMP_temperature;BMP_pressure;BME280_temperature;BME280_humidity;BME280_pressure;Samples;Min_cycle;Max_cycle;Signal;HPM_P1;HPM_P2
2021/11/15 00:00:28;;;;;;;65.85;36.22;;;;;;;4.65;70.99;95249.94;2163391;54;20031;-72
2021/11/15 00:02:29;;;;;;;77.25;38.10;;;;;;;4.75;70.94;95244.06;2163689;54;20030;-71
2021/11/15 00:04:33;;;;;;;68.53;34.55;;;;;;;4.82;70.36;95248.72;2162823;54;20044;-70
2021/11/15 00:06:35;;;;;;;62.65;35.15;;;;;;;4.87;70.39;95257.00;2163760;47;20553;-71
2021/11/15 00:08:37;;;;;;;69.10;36.42;;;;;;;4.87;70.15;95254.41;2163354;47;20030;-72
2021/11/15 00:10:40;;;;;;;63.95;35.75;;;;;;;4.89;70.76;95251.69;2163330;54;20035;-71
2021/11/15 00:12:44;;;;;;;73.63;36.25;;;;;;;4.97;70.33;95252.00;2164062;46;20046;-71
2021/11/15 00:14:46;;;;;;;67.40;35.55;;;;;;;5.07;70.43;95255.53;2163919;54;20045;-71
2021/11/15 00:16:48;;;;;;;65.03;34.85;;;;;;;5.07;70.00;95254.72;2162909;54;20038;-73
2021/11/15 00:18:49;;;;;;;66.80;36.63;;;;;;;5.07;70.26;95259.91;2163434;54;20090;-72
2021/11/15 00:20:51;;;;;;;63.53;34.47;;;;;;;5.06;70.50;95251.31;2162894;47;20166;-73
2021/11/15 00:22:53;;;;;;;64.07;33.67;;;;;;;5.12;69.93;95252.63;2163461;54;20041;-72
2021/11/15 00:24:55;;;;;;;67.60;35.80;;;;;;;5.16;69.95;95250.63;2163322;54;20584;-73
2021/11/15 00:26:57;;;;;;;67.03;34.97;;;;;;;5.17;69.57;95249.69;2163268;47;20060;-73
2021/11/15 00:28:59;;;;;;;63.90;34.30;;;;;;;5.21;69.16;95249.34;2162769;54;20035;-71
2021/11/15 00:31:01;;;;;;;61.22;35.58;;;;;;;5.15;69.13;95251.59;2163827;47;20082;-72
2021/11/15 00:33:03;;;;;;;62.92;35.70;;;;;;;5.18;69.25;95257.34;2163467;39;20488;-72
2021/11/15 00:35:06;;;;;;;70.90;34.72;;;;;;;5.18;69.03;95257.34;2162738;47;20478;-71
2021/11/15 00:37:08;;;;;;;71.75;35.10;;;;;;;5.22;68.92;95258.78;2163107;47;20064;-71
2021/11/15 00:39:10;;;;;;;64.78;35.05;;;;;;;5.30;68.68;95258.25;2163207;47;20569;-72
2021/11/15 00:41:12;;;;;;;69.57;35.40;;;;;;;5.32;68.32;95264.16;2164168;54;20133;-71
2021/11/15 00:43:15;;;;;;;64.03;35.42;;;;;;;5.30;68.24;95258.25;2163275;47;20569;-71
2021/11/15 00:45:17;;;;;;;64.63;35.42;;;;;;;5.32;68.31;95257.19;2163158;54;20039;-72
2021/11/15 00:47:20;;;;;;;59.25;34.50;;;;;;;5.33;68.10;95253.66;2163265;47;20118;-72
2021/11/15 00:49:21;;;;;;;66.32;37.35;;;;;;;5.38;67.76;95257.66;2162986;47;20035;-72
2021/11/15 00:51:27;;;;;;;63.03;34.20;;;;;;;5.39;67.68;95260.16;2163196;47;20117;-71
2021/11/15 00:53:29;;;;;;;66.50;34.65;;;;;;;5.38;67.95;95252.47;2163204;47;20034;-72
2021/11/15 00:55:32;;;;;;;63.42;35.25;;;;;;;5.39;67.64;95261.94;2162507;47;20055;-72
2021/11/15 00:57:34;;;;;;;60.55;33.53;;;;;;;5.37;68.02;95259.44;2163576;39;20490;-72
2021/11/15 00:59:36;;;;;;;60.95;35.17;;;;;;;5.39;67.98;95256.72;2163053;54;20082;-71
2021/11/15 01:01:38;;;;;;;67.15;34.83;;;;;;;5.41;68.05;95258.28;2163158;47;20105;-71
2021/11/15 01:03:40;;;;;;;61.65;34.92;;;;;;;5.46;68.13;95252.72;2162851;47;20577;-71
2021/11/15 01:05:49;;;;;;;68.00;35.90;;;;;;;5.48;69.12;95253.44;2162601;54;20045;-72
2021/11/15 01:07:52;;;;;;;67.00;34.83;;;;;;;5.49;69.88;95255.94;2162898;47;20038;-71
2021/11/15 01:09:53;;;;;;;64.68;35.05;;;;;;;5.51;70.47;95255.81;2163136;54;20062;-72
2021/11/15 01:11:55;;;;;;;77.05;36.47;;;;;;;5.49;70.81;95253.34;2163141;54;20632;-71
2021/11/15 01:13:57;;;;;;;63.33;35.75;;;;;;;5.51;70.88;95254.06;2163806;54;20093;-73
2021/11/15 01:15:59;;;;;;;70.55;37.30;;;;;;;5.52;71.67;95252.28;2163028;54;20061;-71
2021/11/15 01:18:01;;;;;;;71.18;35.30;;;;;;;5.51;71.71;95248.84;2163014;47;20045;-70
2021/11/15 01:20:05;;;;;;;64.93;37.10;;;;;;;5.50;71.73;95252.38;2162506;54;20079;-71
2021/11/15 01:22:07;;;;;;;71.05;35.75;;;;;;;5.47;72.12;95252.63;2163160;47;20035;-70
2021/11/15 01:24:09;;;;;;;68.82;35.60;;;;;;;5.49;72.08;95255.13;2163071;54;20582;-70
2021/11/15 01:26:11;;;;;;;70.32;37.95;;;;;;;5.48;71.95;95256.03;2163092;54;20030;-71
2021/11/15 01:28:13;;;;;;;70.22;35.60;;;;;;;5.42;72.41;95246.94;2162997;54;20031;-71
2021/11/15 01:30:17;;;;;;;71.50;35.08;;;;;;;5.41;72.68;95253.06;2162959;49;20038;-71
2021/11/15 01:32:19;;;;;;;73.72;37.72;;;;;;;5.37;72.69;95246.44;2162847;47;20038;-71
2021/11/15 01:34:21;;;;;;;67.68;36.40;;;;;;;5.30;73.13;95247.84;2162063;54;20038;-71
2021/11/15 01:36:23;;;;;;;68.55;35.17;;;;;;;5.22;73.41;95245.81;2164358;31;20577;-70
2021/11/15 01:38:25;;;;;;;63.72;35.95;;;;;;;5.22;73.36;95247.59;2163048;47;20038;-69
2021/11/15 01:40:30;;;;;;;70.38;35.15;;;;;;;5.19;73.28;95251.25;2163930;47;20055;-70
2021/11/15 01:42:32;;;;;;;78.25;36.63;;;;;;;5.15;73.16;95249.81;2163793;47;20034;-71
2021/11/15 01:44:34;;;;;;;78.57;38.40;;;;;;;5.10;73.25;95251.91;2163509;54;20034;-70
2021/11/15 01:46:36;;;;;;;78.03;37.00;;;;;;;5.09;73.50;95251.06;2163721;54;20030;-71
2021/11/15 01:48:38;;;;;;;77.60;37.47;;;;;;;5.04;73.85;95249.78;2163481;39;20290;-71
2021/11/15 01:50:41;;;;;;;82.03;38.00;;;;;;;5.01;73.86;95252.56;2164027;47;20157;-70
2021/11/15 01:52:44;;;;;;;80.78;37.53;;;;;;;5.01;74.20;95255.16;2164418;47;20042;-70
2021/11/15 01:54:45;;;;;;;80.32;37.35;;;;;;;4.99;74.23;95244.06;2163789;47;20039;-72
2021/11/15 01:56:49;;;;;;;75.78;37.00;;;;;;;5.03;74.14;95243.72;2163704;47;20061;-70
2021/11/15 01:58:54;;;;;;;80.05;39.45;;;;;;;5.04;73.91;95241.97;2163688;54;20084;-72
2021/11/15 02:00:58;;;;;;;81.53;37.58;;;;;;;4.99;74.29;95244.06;2163533;54;20034;-71
2021/11/15 02:03:01;;;;;;;76.65;36.47;;;;;;;4.99;74.58;95244.06;2163926;54;20034;-70
2021/11/15 02:05:03;;;;;;;77.95;37.40;;;;;;;4.92;74.97;95241.91;2163260;54;20086;-70
2021/11/15 02:07:05;;;;;;;80.30;38.08;;;;;;;4.89;75.07;95252.53;2163623;54;20034;-72
2021/11/15 02:09:07;;;;;;;87.85;39.13;;;;;;;4.92;75.00;95241.91;2164047;39;20835;-69
2021/11/15 02:11:09;;;;;;;78.25;37.85;;;;;;;4.97;75.01;95243.34;2164452;47;20030;-70
2021/11/15 02:13:13;;;;;;;76.55;38.70;;;;;;;5.00;74.75;95243.13;2164178;47;20030;-70
2021/11/15 02:15:16;;;;;;;86.07;36.95;;;;;;;4.96;74.78;95241.69;2163665;54;20995;-70
2021/11/15 02:17:17;;;;;;;76.30;37.13;;;;;;;4.93;75.06;95238.38;2163499;47;20086;-71
2021/11/15 02:19:19;;;;;;;80.07;37.15;;;;;;;4.95;75.23;95240.88;2163325;39;20824;-71
2021/11/15 02:21:23;;;;;;;77.60;36.78;;;;;;;4.93;74.91;95238.38;2164374;47;20055;-71
2021/11/15 02:23:27;;;;;;;78.40;37.20;;;;;;;4.96;75.01;95231.31;2163807;39;20326;-70
2021/11/15 02:25:29;;;;;;;70.18;34.85;;;;;;;4.96;74.89;95231.31;2163812;54;20030;-72
2021/11/15 02:27:31;;;;;;;80.63;36.53;;;;;;;4.98;74.95;95235.44;2163641;47;20045;-70
2021/11/15 02:29:33;;;;;;;76.70;36.90;;;;;;;4.96;75.00;95242.53;2163541;47;20697;-72
2021/11/15 02:31:44;;;;;;;71.47;35.17;;;;;;;5.09;75.08;95232.88;2163954;54;20031;-70
2021/11/15 02:33:46;;;;;;;76.90;35.88;;;;;;;5.15;74.69;95243.78;2163579;47;20034;-71
2021/11/15 02:35:48;;;;;;;75.93;36.58;;;;;;;4.99;74.13;95233.69;2164530;54;20039;-71
2021/11/15 02:37:51;;;;;;;61.20;33.05;;;;;;;4.70;74.21;95231.44;2163900;47;20045;-71
2021/11/15 02:39:53;;;;;;;66.03;34.50;;;;;;;4.27;75.65;95227.50;2164184;47;20030;-71
2021/11/15 02:41:55;;;;;;;71.22;35.17;;;;;;;3.81;77.99;95232.47;2163669;54;20053;-71
2021/11/15 02:43:57;;;;;;;74.95;35.75;;;;;;;3.81;78.68;95240.25;2163364;47;20042;-70
2021/11/15 02:45:59;;;;;;;74.85;35.58;;;;;;;3.87;78.64;95238.06;2163406;54;20030;-72
2021/11/15 02:48:01;;;;;;;71.10;35.30;;;;;;;4.02;78.52;95237.94;2163691;54;20217;-71
2021/11/15 02:50:05;;;;;;;79.25;38.25;;;;;;;4.14;78.05;95244.88;2162742;54;20598;-70
2021/11/15 02:52:08;;;;;;;73.80;36.10;;;;;;;4.27;77.80;95240.47;2163728;54;20078;-70
2021/11/15 02:54:10;;;;;;;77.47;35.58;;;;;;;4.41;77.47;95242.13;2164166;47;20172;-70
2021/11/15 02:56:12;;;;;;;73.72;36.03;;;;;;;4.56;76.97;95241.97;2164296;54;20643;-72
2021/11/15 02:58:15;;;;;;;74.70;36.50;;;;;;;4.70;76.33;95247.00;2164170;54;20038;-71
2021/11/15 03:00:21;;;;;;;73.25;36.25;;;;;;;4.79;76.03;95250.69;2163406;54;20030;-71
2021/11/15 03:02:24;;;;;;;75.18;37.03;;;;;;;4.84;75.66;95251.19;2163551;47;20100;-71
2021/11/15 03:04:26;;;;;;;69.32;35.47;;;;;;;4.88;75.41;95255.22;2162880;54;20109;-70
2021/11/15 03:06:28;;;;;;;72.03;35.03;;;;;;;4.96;75.46;95252.91;2163984;54;20034;-70
2021/11/15 03:08:30;;;;;;;75.90;36.42;;;;;;;5.11;75.16;95248.38;2163503;47;20037;-70
2021/11/15 03:10:34;;;;;;;81.85;36.40;;;;;;;5.13;75.07;95243.91;2164266;54;20039;-71
2021/11/15 03:12:36;;;;;;;72.07;36.80;;;;;;;5.16;74.64;95246.25;2163678;47;20054;-70
2021/11/15 03:14:38;;;;;;;80.95;35.13;;;;;;;5.17;74.95;95252.28;2163400;54;20053;-70
2021/11/15 03:16:40;;;;;;;68.40;35.35;;;;;;;5.16;74.50;95248.84;2164176;54;20042;-70
2021/11/15 03:18:43;;;;;;;72.05;35.85;;;;;;;5.18;74.73;95259.97;2163447;54;20049;-71
2021/11/15 03:20:48;;;;;;;74.47;37.10;;;;;;;5.16;74.83;95253.22;2163274;47;20022;-71
2021/11/15 03:22:49;;;;;;;79.75;37.40;;;;;;;5.04;75.11;95248.00;2163285;47;20557;-70
2021/11/15 03:24:51;;;;;;;75.10;37.85;;;;;;;5.05;75.49;95256.59;2163508;54;20148;-71
2021/11/15 03:26:53;;;;;;;81.90;37.15;;;;;;;5.06;75.27;95253.09;2164116;54;20035;-71
2021/11/15 03:28:56;;;;;;;74.68;34.95;;;;;;;5.12;75.31;95247.44;2163779;39;20598;-69
2021/11/15 03:31:01;;;;;;;72.70;34.17;;;;;;;5.23;74.80;95247.47;2163913;47;20352;-72
2021/11/15 03:33:03;;;;;;;76.32;35.58;;;;;;;5.30;74.57;95253.03;2163060;54;20038;-70
2021/11/15 03:35:05;;;;;;;72.50;35.42;;;;;;;5.34;74.52;95246.69;2163263;47;20042;-71
2021/11/15 03:37:08;;;;;;;69.85;34.30;;;;;;;5.39;74.17;95252.34;2163359;54;20090;-71
2021/11/15 03:39:11;;;;;;;65.93;33.92;;;;;;;5.44;74.14;95252.00;2164108;54;20792;-70
2021/11/15 03:41:14;;;;;;;78.68;42.20;;;;;;;5.48;74.06;95256.03;2164017;39;20590;-70
2021/11/15 03:43:16;;;;;;;77.25;37.78;;;;;;;5.49;73.79;95255.13;2163507;54;20030;-72
2021/11/15 03:45:18;;;;;;;66.63;35.25;;;;;;;5.53;73.55;95248.75;2163236;54;20150;-70
2021/11/15 03:47:21;;;;;;;71.25;34.17;;;;;;;5.56;73.09;95248.50;2164085;47;20062;-72
2021/11/15 03:49:23;;;;;;;72.97;35.70;;;;;;;5.56;73.18;95253.69;2162829;54;20579;-71
2021/11/15 03:51:26;;;;;;;66.25;35.65;;;;;;;5.57;72.83;95251.94;2164411;47;20042;-71
2021/11/15 03:53:35;;;;;;;62.20;32.03;;;;;;;5.53;72.60;95256.53;2163690;54;20031;-71
2021/11/15 03:55:37;;;;;;;67.07;33.50;;;;;;;5.56;72.48;95260.69;2163625;47;20030;-71
2021/11/15 03:57:39;;;;;;;63.08;33.55;;;;;;;5.56;71.86;95261.50;2163706;47;20576;-71
2021/11/15 03:59:41;;;;;;;65.88;33.75;;;;;;;5.53;71.63;95259.16;2163215;39;20419;-71
2021/11/15 04:01:44;;;;;;;64.80;33.78;;;;;;;5.52;71.43;95247.91;2163325;54;20046;-71
2021/11/15 04:03:47;;;;;;;71.73;34.80;;;;;;;5.53;71.43;95257.38;2162895;54;20030;-71
2021/11/15 04:05:57;;;;;;;63.88;32.78;;;;;;;5.48;71.44;95262.06;2162946;47;20331;-71
2021/11/15 04:08:00;;;;;;;63.03;31.70;;;;;;;5.47;71.29;95251.81;2164298;54;20034;-73
2021/11/15 04:10:09;;;;;;;63.10;34.78;;;;;;;5.44;71.31;95239.88;2163557;54;20521;-69
2021/11/15 04:12:11;;;;;;;67.15;34.83;;;;;;;5.48;71.23;95253.44;2164254;54;20042;-72
2021/11/15 04:14:15;;;;;;;71.55;33.33;;;;;;;5.43;71.65;95251.19;2163291;54;20031;-72
2021/11/15 04:16:18;;;;;;;64.10;32.63;;;;;;;5.39;71.91;95251.53;2164025;54;20038;-70
2021/11/15 04:18:23;;;;;;;66.60;32.70;;;;;;;5.36;72.01;95254.38;2162893;54;20817;-71
2021/11/15 04:20:26;;;;;;;64.28;33.47;;;;;;;5.38;71.42;95249.88;2163078;47;20038;-71
2021/11/15 04:22:28;;;;;;;62.27;33.20;;;;;;;5.37;71.40;95249.03;2163242;54;20080;-73
2021/11/15 04:24:30;;;;;;;67.28;34.15;;;;;;;5.34;71.46;95251.88;2163778;54;20470;-72
2021/11/15 04:26:32;;;;;;;65.40;33.03;;;;;;;5.34;71.34;95242.31;2163247;47;20046;-71
2021/11/15 04:28:34;;;;;;;61.65;32.45;;;;;;;5.31;71.38;95246.91;2163107;47;20038;-72
2021/11/15 04:30:36;;;;;;;59.70;31.90;;;;;;;5.29;71.26;95248.78;2164108;31;20506;-70
2021/11/15 04:32:42;;;;;;;58.03;31.35;;;;;;;5.31;71.23;95255.53;2163333;47;20083;-72
2021/11/15 04:34:44;;;;;;;62.47;33.40;;;;;;;5.32;71.09;95257.19;2162974;54;20030;-71
2021/11/15 04:36:46;;;;;;;62.30;32.80;;;;;;;5.26;70.92;95249.00;2163898;54;20042;-72
2021/11/15 04:38:48;;;;;;;65.13;32.15;;;;;;;5.23;70.93;95249.25;2163168;47;20035;-72
2021/11/15 04:40:50;;;;;;;64.35;32.35;;;;;;;5.18;71.14;95248.75;2164083;47;20035;-72
2021/11/15 04:42:51;;;;;;;63.90;31.52;;;;;;;5.16;71.00;95250.63;2164253;39;20418;-72
2021/11/15 04:44:53;;;;;;;61.25;31.70;;;;;;;5.12;71.11;95255.22;2163078;47;20038;-70
2021/11/15 04:46:55;;;;;;;58.95;32.45;;;;;;;5.14;71.14;95255.91;2163158;54;20031;-71
2021/11/15 04:48:57;;;;;;;62.78;33.25;;;;;;;5.12;71.04;95256.06;2163425;54;20046;-71
2021/11/15 04:50:59;;;;;;;60.17;32.40;;;;;;;5.11;71.08;95258.75;2163147;54;20094;-71
2021/11/15 04:53:03;;;;;;;62.83;31.83;;;;;;;5.07;71.05;95258.16;2163426;54;20046;-74
2021/11/15 04:55:06;;;;;;;62.63;32.28;;;;;;;5.08;70.94;95257.22;2163533;54;20030;-73
2021/11/15 04:57:08;;;;;;;60.80;30.95;;;;;;;5.11;70.75;95263.94;2164087;54;20089;-71
2021/11/15 04:59:11;;;;;;;58.17;30.83;;;;;;;5.05;70.58;95262.63;2163322;47;20037;-72
2021/11/15 05:01:13;;;;;;;59.67;32.03;;;;;;;5.04;71.21;95270.53;2164719;31;20539;-73
2021/11/15 05:03:17;;;;;;;55.33;30.30;;;;;;;5.04;70.85;95270.53;2163022;47;20022;-73
2021/11/15 05:05:19;;;;;;;;;;;;;;;5.03;70.92;95268.88;2163121;54;20030;-73
2021/11/15 05:07:21;;;;;;;63.83;30.42;;;;;;;5.02;71.08;95264.63;2163288;54;20457;-72
2021/11/15 05:09:23;;;;;;;58.20;30.58;;;;;;;4.99;71.19;95270.03;2163600;47;20037;-72
2021/11/15 05:11:25;;;;;;;70.10;33.00;;;;;;;5.03;70.94;95276.66;2163318;47;20030;-72
2021/11/15 05:13:27;;;;;;;60.72;32.83;;;;;;;5.00;71.02;95276.91;2163134;54;20086;-72
2021/11/15 05:15:29;;;;;;;54.88;30.15;;;;;;;5.01;71.24;95283.72;2164054;47;20561;-71
2021/11/15 05:17:31;;;;;;;59.65;29.60;;;;;;;5.05;71.31;95283.41;2163733;54;20078;-72
2021/11/15 05:19:33;;;;;;;59.38;30.13;;;;;;;5.06;70.92;95287.66;2163865;46;20095;-73
2021/11/15 05:21:35;;;;;;;58.22;31.52;;;;;;;5.11;70.79;95289.91;2163852;47;20038;-71
2021/11/15 05:23:37;;;;;;;57.20;31.38;;;;;;;5.10;70.90;95294.28;2163706;47;20076;-73
2021/11/15 05:25:39;;;;;;;62.33;30.83;;;;;;;5.07;70.99;95291.09;2163705;47;20079;-71
2021/11/15 05:27:41;;;;;;;58.80;31.90;;;;;;;5.06;71.08;95289.44;2163905;47;20601;-73
2021/11/15 05:29:44;;;;;;;57.72;30.38;;;;;;;5.06;70.67;95290.25;2163802;47;20062;-71
2021/11/15 05:31:46;;;;;;;;;;;;;;;5.03;70.82;95294.84;2164698;47;20038;-71
2021/11/15 05:33:48;;;;;;;65.95;33.22;;;;;;;4.75;71.50;95291.63;2164022;47;19947;-71
2021/11/15 05:35:50;;;;;;;71.68;35.03;;;;;;;4.69;72.19;95299.88;2163281;54;20709;-70
2021/11/15 05:37:53;;;;;;;65.78;31.95;;;;;;;4.70;72.24;95298.91;2163576;47;20055;-72
2021/11/15 05:39:55;;;;;;;53.75;30.05;;;;;;;4.76;71.95;95295.88;2163669;54;20046;-73
2021/11/15 05:41:58;;;;;;;55.15;29.48;;;;;;;4.80;71.56;95304.28;2164628;39;20403;-74
2021/11/15 05:44:00;;;;;;;52.97;29.40;;;;;;;4.80;71.42;95302.53;2163562;54;20034;-73
2021/11/15 05:46:02;;;;;;;53.35;27.38;;;;;;;4.85;71.41;95297.00;2163325;54;20038;-72
2021/11/15 05:48:07;;;;;;;50.13;26.52;;;;;;;4.89;71.09;95309.66;2163143;54;20086;-73
2021/11/15 05:50:10;;;;;;;49.85;27.17;;;;;;;4.92;70.96;95309.41;2162969;47;20059;-72
2021/11/15 05:52:12;;;;;;;50.80;27.10;;;;;;;4.97;70.99;95310.84;2163704;54;20030;-71
2021/11/15 05:54:13;;;;;;;48.35;25.95;;;;;;;5.03;70.83;95315.59;2163679;54;20031;-71
2021/11/15 05:56:15;;;;;;;51.05;26.52;;;;;;;5.05;70.77;95322.34;2163901;39;20464;-72
2021/11/15 05:58:17;;;;;;;51.38;26.52;;;;;;;5.04;70.84;95325.06;2163530;54;20038;-72
2021/11/15 06:00:23;;;;;;;48.92;27.48;;;;;;;5.09;70.98;95320.38;2164004;47;20044;-72
2021/11/15 06:02:25;;;;;;;56.58;28.35;;;;;;;5.11;70.55;95321.09;2162732;54;20174;-71
2021/11/15 06:04:26;;;;;;;57.75;28.33;;;;;;;5.07;70.84;95322.25;2163338;46;20045;-72
2021/11/15 06:06:30;;;;;;;50.22;25.92;;;;;;;5.09;71.01;95328.16;2163516;46;20091;-72
2021/11/15 06:08:31;;;;;;;48.97;26.48;;;;;;;5.12;71.13;95325.34;2163604;54;20031;-70
2021/11/15 06:10:33;;;;;;;56.55;27.02;;;;;;;5.16;70.99;95326.78;2164165;54;20031;-70
2021/11/15 06:12:38;;;;;;;48.55;28.35;;;;;;;5.14;70.76;95328.66;2163725;54;20057;-72
2021/11/15 06:14:40;;;;;;;46.30;26.65;;;;;;;5.16;71.37;95326.78;2163368;47;20030;-72
2021/11/15 06:16:42;;;;;;;54.03;28.30;;;;;;;5.21;71.09;95336.84;2164152;54;20030;-71
2021/11/15 06:18:44;;;;;;;52.95;27.70;;;;;;;5.28;71.11;95322.47;2163088;47;20037;-72
2021/11/15 06:20:46;;;;;;;48.53;27.35;;;;;;;5.33;70.82;95329.00;2163547;54;20078;-72
2021/11/15 06:22:48;;;;;;;48.72;26.67;;;;;;;5.18;71.39;95329.25;2163455;47;20038;-72
2021/11/15 06:24:50;;;;;;;52.00;27.70;;;;;;;5.18;72.05;95329.25;2163983;46;20094;-72
2021/11/15 06:26:52;;;;;;;50.33;27.67;;;;;;;5.15;72.11;95338.13;2164182;47;20441;-71
2021/11/15 06:28:54;;;;;;;47.90;28.85;;;;;;;5.22;72.75;95341.09;2163366;54;20125;-73
2021/11/15 06:30:56;;;;;;;52.20;28.77;;;;;;;5.19;72.79;95336.13;2163964;46;20086;-73
2021/11/15 06:32:58;;;;;;;58.30;28.00;;;;;;;5.37;72.50;95341.75;2163494;39;20565;-73
2021/11/15 06:35:00;;;;;;;47.30;26.63;;;;;;;5.49;71.89;95348.66;2163187;54;20055;-74
2021/11/15 06:37:02;;;;;;;41.63;25.85;;;;;;;5.53;71.28;95344.91;2164169;54;20030;-73
2021/11/15 06:39:04;;;;;;;43.60;26.15;;;;;;;5.56;71.54;95342.06;2163603;54;20030;-72
2021/11/15 06:41:06;;;;;;;66.57;37.15;;;;;;;5.67;71.28;95342.09;2164203;54;20125;-71
2021/11/15 06:43:08;;;;;;;47.22;26.92;;;;;;;5.68;71.25;95343.78;2163628;54;20031;-72
2021/11/15 06:45:12;;;;;;;50.13;25.27;;;;;;;5.68;71.19;95345.56;2163534;47;20038;-72
2021/11/15 06:47:14;;;;;;;44.85;24.98;;;;;;;5.72;71.01;95341.75;2163631;47;20632;-72
2021/11/15 06:49:16;;;;;;;43.72;24.27;;;;;;;5.88;70.73;95339.69;2163362;47;20035;-71
2021/11/15 06:51:17;;;;;;;41.10;25.38;;;;;;;5.88;70.56;95338.88;2163406;54;20038;-72
2021/11/15 06:53:19;;;;;;;46.83;23.48;;;;;;;5.95;70.29;95337.47;2163937;54;20031;-72
2021/11/15 06:55:23;;;;;;;42.00;22.42;;;;;;;6.04;70.16;95339.38;2164149;54;20528;-72
2021/11/15 06:57:26;;;;;;;40.33;21.65;;;;;;;6.14;69.71;95337.75;2164238;46;20037;-73
2021/11/15 06:59:28;;;;;;;43.85;24.23;;;;;;;6.17;69.70;95346.28;2164000;54;20030;-72
2021/11/15 07:01:35;;;;;;;37.67;23.33;;;;;;;6.27;69.49;95340.25;2163992;54;20038;-72
2021/11/15 07:03:53;;;;;;;43.97;27.20;;;;;;;6.20;69.79;95346.06;2163176;54;20158;-72
2021/11/15 07:05:55;;;;;;;39.05;23.08;;;;;;;6.34;69.60;95338.81;2163082;47;20042;-72
2021/11/15 07:07:57;;;;;;;41.20;23.02;;;;;;;6.49;69.21;95336.81;2163665;39;20447;-72
2021/11/15 07:09:59;;;;;;;37.10;22.10;;;;;;;6.49;69.52;95343.81;2164599;39;20458;-73
2021/11/15 07:12:01;;;;;;;46.10;25.98;;;;;;;6.63;69.16;95345.38;2164059;54;20098;-73
2021/11/15 07:14:03;;;;;;;38.55;22.48;;;;;;;6.73;68.86;95341.06;2163131;54;20030;-72
2021/11/15 07:16:05;;;;;;;39.27;23.53;;;;;;;6.65;69.39;95336.47;2163858;54;20030;-71
2021/11/15 07:18:08;;;;;;;34.53;21.95;;;;;;;6.71;69.01;95343.81;2162832;47;20046;-72
2021/11/15 07:20:10;;;;;;;35.80;22.27;;;;;;;6.80;69.10;95344.88;2163014;54;20495;-71
2021/11/15 07:22:13;;;;;;;40.70;21.88;;;;;;;6.95;68.70;95338.47;2163866;54;20046;-71
2021/11/15 07:24:15;;;;;;;40.22;22.35;;;;;;;6.95;69.11;95341.06;2163420;54;20084;-71
2021/11/15 07:26:18;;;;;;;39.25;22.25;;;;;;;6.87;69.75;95337.41;2163444;47;20086;-72
2021/11/15 07:28:22;;;;;;;42.55;24.67;;;;;;;6.85;70.02;95342.72;2163819;39;20673;-71
2021/11/15 07:30:24;;;;;;;38.22;24.02;;;;;;;6.80;70.08;95334.47;2163304;54;20585;-72
2021/11/15 07:32:26;;;;;;;45.63;24.58;;;;;;;6.82;70.60;95335.16;2164063;54;20035;-73
2021/11/15 07:34:30;;;;;;;45.67;24.63;;;;;;;6.97;70.51;95339.16;2163217;54;20031;-72
2021/11/15 07:36:32;;;;;;;44.97;26.20;;;;;;;6.86;70.89;95339.19;2163470;39;20351;-73
2021/11/15 07:38:34;;;;;;;43.92;25.00;;;;;;;6.69;71.42;95340.50;2163676;54;20138;-74
2021/11/15 07:40:36;;;;;;;45.85;27.08;;;;;;;6.63;71.94;95345.38;2163242;54;20122;-73
2021/11/15 07:42:56;;;;;;;44.00;26.00;;;;;;;6.53;72.59;95338.25;2163812;54;20034;-73
2021/11/15 07:44:58;;;;;;;49.08;27.60;;;;;;;6.42;73.22;95334.81;2163372;47;20034;-71
2021/11/15 07:46:59;;;;;;;45.20;25.98;;;;;;;6.44;73.12;95346.78;2164172;54;20038;-72
2021/11/15 07:49:01;;;;;;;42.63;25.98;;;;;;;6.59;72.86;95338.75;2163738;47;20035;-72
2021/11/15 07:51:03;;;;;;;42.78;26.85;;;;;;;6.78;72.38;95338.13;2163450;54;20031;-72
2021/11/15 07:53:05;;;;;;;51.63;27.83;;;;;;;6.85;72.05;95331.50;2163383;47;20038;-71
2021/11/15 07:55:09;;;;;;;48.40;26.90;;;;;;;7.08;71.74;95334.88;2163362;54;20037;-73
2021/11/15 07:57:11;;;;;;;;;;;;;;;7.21;71.01;95327.75;2163399;39;20372;-72
2021/11/15 07:59:13;;;;;;;40.88;23.58;;;;;;;7.17;70.90;95334.16;2163235;47;19986;-74
2021/11/15 08:01:15;;;;;;;37.53;24.10;;;;;;;7.34;71.11;95325.81;2163272;47;20034;-72
2021/11/15 08:03:17;;;;;;;43.92;24.67;;;;;;;7.43;70.44;95329.44;2162777;47;20051;-71
2021/11/15 08:05:19;;;;;;;45.45;24.92;;;;;;;7.48;70.41;95331.66;2162683;54;20030;-74
2021/11/15 08:07:21;;;;;;;39.85;23.70;;;;;;;7.65;69.63;95323.28;2163912;54;20083;-71
2021/11/15 08:09:23;;;;;;;36.58;23.90;;;;;;;7.71;69.31;95328.00;2163958;54;20035;-73
2021/11/15 08:11:30;;;;;;;36.97;25.13;;;;;;;7.84;69.05;95327.00;2163193;47;20046;-72
2021/11/15 08:13:32;;;;;;;43.67;26.13;;;;;;;7.85;68.92;95321.69;2164099;31;20515;-71
2021/11/15 08:15:34;;;;;;;43.88;26.65;;;;;;;8.04;68.67;95328.78;2164197;54;20034;-74
2021/11/15 08:17:37;;;;;;;46.90;25.10;;;;;;;8.05;68.35;95325.22;2162948;47;20038;-71
2021/11/15 08:19:39;;;;;;;38.40;24.10;;;;;;;8.14;67.94;95328.84;2163357;54;20030;-71
2021/11/15 08:21:42;;;;;;;41.72;25.20;;;;;;;8.24;67.78;95328.88;2163427;54;20030;-72
2021/11/15 08:23:47;;;;;;;34.75;23.67;;;;;;;8.40;67.16;95322.28;2163852;39;20512;-73
2021/11/15 08:26:13;;;;;;;36.15;22.48;;;;;;;8.46;66.50;95320.13;2164041;47;20057;-73
2021/11/15 08:28:15;;;;;;;39.20;23.80;;;;;;;8.40;67.09;95322.28;2163414;54;20071;-72
2021/11/15 08:30:17;;;;;;;38.22;23.00;;;;;;;8.44;66.95;95322.84;2163714;54;20031;-73
2021/11/15 08:32:24;;;;;;;35.50;23.00;;;;;;;8.64;66.40;95322.94;2163279;54;20042;-71
2021/11/15 08:34:26;;;;;;;40.35;23.83;;;;;;;8.70;66.72;95320.63;2162347;54;20079;-73
2021/11/15 08:36:29;;;;;;;36.67;23.50;;;;;;;8.79;66.08;95329.44;2163038;54;20095;-72
2021/11/15 08:38:53;;;;;;;41.45;23.63;;;;;;;8.84;65.82;95329.03;2163274;46;20046;-73
2021/11/15 08:40:55;;;;;;;40.20;24.38;;;;;;;8.95;65.44;95324.56;2163964;54;20598;-72
2021/11/15 08:42:57;;;;;;;43.17;23.80;;;;;;;9.04;65.29;95328.16;2163755;47;20031;-72
2021/11/15 08:45:01;;;;;;;38.03;22.98;;;;;;;9.23;65.02;95328.19;2163794;47;20042;-72
2021/11/15 08:47:03;;;;;;;38.35;24.98;;;;;;;9.07;65.10;95322.63;2163957;47;20074;-72
2021/11/15 08:49:08;;;;;;;45.63;24.25;;;;;;;9.00;65.29;95321.53;2163338;47;20597;-73
2021/11/15 08:51:12;;;;;;;36.80;23.13;;;;;;;9.20;64.74;95328.44;2163629;47;20035;-72
2021/11/15 08:53:14;;;;;;;36.33;22.85;;;;;;;9.13;64.89;95321.28;2163833;54;20038;-75
2021/11/15 08:55:16;;;;;;;36.63;23.48;;;;;;;9.17;64.74;95325.28;2164380;47;20038;-72
2021/11/15 08:57:18;;;;;;;36.28;23.15;;;;;;;9.29;64.59;95329.44;2164473;54;20399;-72
2021/11/15 08:59:22;;;;;;;44.63;23.75;;;;;;;9.46;64.22;95325.31;2163772;47;20118;-72
2021/11/15 09:01:25;;;;;;;38.85;23.45;;;;;;;9.43;63.90;95320.34;2164103;54;20031;-71
2021/11/15 09:03:27;;;;;;;37.20;23.70;;;;;;;9.46;63.96;95321.88;2163148;47;20074;-73
2021/11/15 09:05:29;;;;;;;41.58;24.17;;;;;;;9.38;64.19;95326.00;2163983;54;20031;-72
2021/11/15 09:07:34;;;;;;;37.55;23.67;;;;;;;9.48;63.92;95336.44;2164228;54;20031;-72
2021/11/15 09:09:40;;;;;;;41.45;25.70;;;;;;;9.50;63.81;95334.53;2163840;47;20039;-71
2021/11/15 09:11:54;;;;;;;38.30;24.83;;;;;;;9.50;64.54;95328.47;2163548;47;20073;-72
2021/11/15 09:13:57;;;;;;;40.38;24.15;;;;;;;9.41;64.81;95330.13;2164525;47;20034;-72
2021/11/15 09:15:59;;;;;;;41.28;24.45;;;;;;;9.36;64.88;95327.91;2163881;54;20078;-71
2021/11/15 09:18:01;;;;;;;38.15;23.48;;;;;;;9.19;65.15;95326.78;2163764;54;20162;-72
2021/11/15 09:20:05;;;;;;;37.33;24.40;;;;;;;9.43;64.81;95323.78;2163985;47;20561;-73
2021/11/15 09:22:07;;;;;;;40.50;25.30;;;;;;;9.69;64.24;95315.41;2163804;47;20030;-73
2021/11/15 09:24:09;;;;;;;33.78;22.20;;;;;;;9.85;63.71;95320.06;2164137;39;20448;-71
2021/11/15 09:26:13;;;;;;;38.22;22.27;;;;;;;9.76;63.82;95319.09;2164286;39;20452;-73
2021/11/15 09:28:16;;;;;;;29.75;20.83;;;;;;;9.85;63.28;95325.28;2163861;54;20030;-72
2021/11/15 09:30:17;;;;;;;35.00;22.45;;;;;;;9.91;63.22;95323.94;2164154;54;20030;-72
2021/11/15 09:32:20;;;;;;;31.92;22.23;;;;;;;10.10;63.09;95321.28;2164256;47;20022;-73